Home > Products > Valid Products > TAF

000
FTUS42 KTAE 011731
TAFTLH
TAF
KTLH 011731Z 0118/0218 02007KT P6SM VCSH SCT030 BKN250
     FM020000 07004KT P6SM BKN100
     FM021400 14004KT P6SM VCSH BKN050=



000
FTUS42 KTAE 011731
TAFDHN
TAF
KDHN 011731Z 0118/0218 01004KT P6SM FEW050 SCT250=



000
FTUS42 KTAE 011731
TAFABY
TAF
KABY 011731Z 0118/0218 04006KT P6SM SCT040 SCT250=



000
FTUS42 KTAE 011731
TAFVLD
TAF
KVLD 011731Z 0118/0218 04003KT P6SM VCTS BKN025CB BKN050
      TEMPO 0118/0122 3SM TSRA
     FM020100 VRB03KT P6SM BKN250
     FM020900 14003KT 5SM BR BKN007
     FM021400 15005KT P6SM VCSH BKN025=



000
FTUS42 KTAE 011731
TAFVLD
TAF
KVLD 011731Z 0118/0218 04003KT P6SM VCTS BKN025CB BKN050
      TEMPO 0118/0122 3SM TSRA
     FM020100 VRB03KT P6SM BKN250
     FM020900 14003KT 5SM BR BKN007
     FM021400 15005KT P6SM VCSH BKN025=



000
FTUS42 KTAE 011731
TAFABY
TAF
KABY 011731Z 0118/0218 04006KT P6SM SCT040 SCT250=



000
FTUS42 KTAE 011731
TAFDHN
TAF
KDHN 011731Z 0118/0218 01004KT P6SM FEW050 SCT250=



000
FTUS42 KTAE 011309 AAA
TAFVLD
TAF AMD
KVLD 011309Z 0113/0212 07005KT P6SM OVC005
     FM011400 VRB04KT P6SM SCT040
     FM011800 13005KT P6SM VCSH BKN040
      TEMPO 0120/0124 5SM TSRA FEW010 BKN035CB
     FM020300 00000KT P6SM BKN250=



000
FTUS42 KTAE 011120
TAFDHN
TAF
KDHN 011120Z 0112/0212 04005KT P6SM SCT250=



000
FTUS42 KTAE 011120
TAFABY
TAF
KABY 011120Z 0112/0212 15003KT P6SM FEW050 SCT250=



000
FTUS42 KTAE 011120
TAFVLD
TAF
KVLD 011120Z 0112/0212 VRB05KT P6SM BKN040
     FM011800 13005KT P6SM VCSH BKN040
      TEMPO 0120/0124 5SM TSRA FEW010 BKN035CB
     FM020300 00000KT P6SM BKN250=



000
FTUS42 KTAE 011120
TAFTLH
TAF
KTLH 011120Z 0112/0212 09005KT P6SM FEW060 SCT250
     FM011600 08007KT P6SM VCSH BKN040
      TEMPO 0118/0122 5SM TSRA FEW010 BKN035CB
     FM020000 00000KT P6SM BKN250=



000
FTUS42 KTAE 011120
TAFDHN
TAF
KDHN 011120Z 0112/0212 04005KT P6SM SCT250=



000
FTUS42 KTAE 011120
TAFTLH
TAF
KTLH 011120Z 0112/0212 09005KT P6SM FEW060 SCT250
     FM011600 08007KT P6SM VCSH BKN040
      TEMPO 0118/0122 5SM TSRA FEW010 BKN035CB
     FM020000 00000KT P6SM BKN250=



000
FTUS42 KTAE 011120
TAFABY
TAF
KABY 011120Z 0112/0212 15003KT P6SM FEW050 SCT250=



000
FTUS42 KTAE 011120
TAFVLD
TAF
KVLD 011120Z 0112/0212 VRB05KT P6SM BKN040
     FM011800 13005KT P6SM VCSH BKN040
      TEMPO 0120/0124 5SM TSRA FEW010 BKN035CB
     FM020300 00000KT P6SM BKN250=



000
FTUS42 KTAE 010521
TAFDHN
TAF
KDHN 010521Z 0106/0206 08005KT P6SM SCT250=



000
FTUS42 KTAE 010521
TAFDHN
TAF
KDHN 010521Z 0106/0206 08005KT P6SM SCT250=



000
FTUS42 KTAE 010521
TAFVLD
TAF
KVLD 010521Z 0106/0206 VRB05KT P6SM BKN040
     FM011800 13005KT P6SM -SHRA BKN040
      TEMPO 0120/0124 5SM TSRA FEW010 BKN035CB=



000
FTUS42 KTAE 010521
TAFTLH
TAF
KTLH 010521Z 0106/0206 09005KT P6SM FEW060 SCT250
     FM011600 08007KT P6SM -SHRA BKN040
      TEMPO 0118/0122 5SM TSRA FEW010 BKN035CB=



000
FTUS42 KTAE 010521
TAFTLH
TAF
KTLH 010521Z 0106/0206 09005KT P6SM FEW060 SCT250
     FM011600 08007KT P6SM -SHRA BKN040
      TEMPO 0118/0122 5SM TSRA FEW010 BKN035CB=



000
FTUS42 KTAE 010521
TAFVLD
TAF
KVLD 010521Z 0106/0206 VRB05KT P6SM BKN040
     FM011800 13005KT P6SM -SHRA BKN040
      TEMPO 0120/0124 5SM TSRA FEW010 BKN035CB=



000
FTUS42 KTAE 010521
TAFABY
TAF
KABY 010521Z 0106/0206 10003KT P6SM FEW050 SCT250=



000
FTUS42 KTAE 010521
TAFABY
TAF
KABY 010521Z 0106/0206 10003KT P6SM FEW050 SCT250=



000
FTUS42 KTAE 312320
TAFABY
TAF
KABY 312320Z 0100/0124 10003KT P6SM FEW050 SCT250=



000
FTUS42 KTAE 312320
TAFTLH
TAF
KTLH 312320Z 0100/0124 09005KT P6SM FEW060 SCT250
     FM011600 08007KT P6SM -SHRA BKN040
      TEMPO 0118/0122 5SM TSRA FEW010 BKN035CB=



000
FTUS42 KTAE 312320
TAFVLD
TAF
KVLD 312320Z 0100/0124 VRB05KT P6SM BKN040
     FM011600 13005KT P6SM -SHRA BKN040
      TEMPO 0120/0124 5SM TSRA FEW010 BKN035CB=



000
FTUS42 KTAE 312320
TAFDHN
TAF
KDHN 312320Z 0100/0124 08005KT P6SM BKN040=



000
FTUS42 KTAE 311729
TAFVLD
TAF
KVLD 311729Z 3118/0118 05005KT P6SM FEW030 BKN040
     FM011500 08005KT P6SM VCSH SCT040=



000
FTUS42 KTAE 311729
TAFABY
TAF
KABY 311729Z 3118/0118 35005KT P6SM BKN040
     FM311900 18004KT P6SM VCSH BKN040
     FM010000 17003KT P6SM SCT040 SCT250=



000
FTUS42 KTAE 311729
TAFDHN
TAF
KDHN 311729Z 3118/0118 35005KT P6SM SCT020
     FM312000 35007KT P6SM VCSH BKN040
     FM010300 06005KT P6SM SCT040=



000
FTUS42 KTAE 311729
TAFTLH
TAF
KTLH 311729Z 3118/0118 06007KT P6SM SCT030
     FM010000 08004KT P6SM FEW040 SCT250
     FM011500 08007KT P6SM VCSH BKN040=



000
FTUS42 KTAE 311451 AAB
TAFDHN
TAF AMD
KDHN 311451Z 3115/0112 04003KT 1SM BR OVC002
     FM311600 06005KT P6SM SCT020
     FM311700 35008KT P6SM VCSH BKN040
     FM010300 15003KT P6SM SCT040 SCT250=



000
FTUS42 KTAE 311304 AAA
TAFDHN
TAF AMD
KDHN 311304Z 3113/0112 04003KT 1SM BR OVC002
      TEMPO 3113/3114 1/4SM FG VV002
     FM311400 06005KT P6SM SCT020
     FM311700 35008KT P6SM VCSH BKN040
     FM010300 15003KT P6SM SCT040 SCT250=



000
FTUS42 KTAE 311304 AAA
TAFDHN
TAF AMD
KDHN 311304Z 3113/0112 04003KT 1SM BR OVC002
      TEMPO 3113/3114 1/4SM FG VV002
     FM311400 06005KT P6SM SCT020
     FM311700 35008KT P6SM VCSH BKN040
     FM010300 15003KT P6SM SCT040 SCT250=



000
FTUS42 KTAE 311133
TAFDHN
TAF
KDHN 311133Z 3112/0112 04003KT 1SM BR OVC002
     FM311300 06005KT P6SM SCT020
     FM311700 35008KT P6SM VCSH BKN040
     FM010300 15003KT P6SM SCT040 SCT250=



000
FTUS42 KTAE 311120
TAFDHN
TAF
KDHN 311120Z 3112/0112 04003KT 2SM BR OVC002
     FM311300 06005KT P6SM SCT020
     FM311700 35008KT P6SM VCSH BKN040
     FM010300 15003KT P6SM SCT040 SCT250=



000
FTUS42 KTAE 311120
TAFDHN
TAF
KDHN 311120Z 3112/0112 04003KT 2SM BR OVC002
     FM311300 06005KT P6SM SCT020
     FM311700 35008KT P6SM VCSH BKN040
     FM010300 15003KT P6SM SCT040 SCT250=



000
FTUS42 KTAE 311120
TAFTLH
TAF
KTLH 311120Z 3112/0112 00000KT 1SM BR OVC002
     FM311400 08007KT P6SM SCT030
     FM010000 12004KT P6SM FEW040 SCT250=



000
FTUS42 KTAE 311120
TAFABY
TAF
KABY 311120Z 3112/0112 06003KT 5SM BR SCT002 BKN010
     FM311400 06005KT P6SM SCT030
     FM311900 18004KT P6SM VCSH BKN040
     FM010000 17003KT P6SM SCT040 SCT250=



000
FTUS42 KTAE 311120
TAFTLH
TAF
KTLH 311120Z 3112/0112 00000KT 1SM BR OVC002
     FM311400 08007KT P6SM SCT030
     FM010000 12004KT P6SM FEW040 SCT250=



000
FTUS42 KTAE 311120
TAFVLD
TAF
KVLD 311120Z 3112/0112 00000KT 5SM BR SCT002 BKN010
     FM311400 VRB03KT P6SM SCT040 SCT250=



000
FTUS42 KTAE 311120
TAFABY
TAF
KABY 311120Z 3112/0112 06003KT 5SM BR SCT002 BKN010
     FM311400 06005KT P6SM SCT030
     FM311900 18004KT P6SM VCSH BKN040
     FM010000 17003KT P6SM SCT040 SCT250=



000
FTUS42 KTAE 311120
TAFVLD
TAF
KVLD 311120Z 3112/0112 00000KT 5SM BR SCT002 BKN010
     FM311400 VRB03KT P6SM SCT040 SCT250=



000
FTUS42 KTAE 310944 AAB
TAFABY
TAF AMD
KABY 310944Z 3110/0106 06003KT 5SM BR BKN004
     FM311400 34005KT P6SM SCT030=



000
FTUS42 KTAE 310944 AAA
TAFDHN
TAF AMD
KDHN 310944Z 3110/0106 02003KT 6SM BR SKC
     FM311030 04003KT 5SM BR OVC002
     FM311300 35005KT P6SM SCT030=



000
FTUS42 KTAE 310944 AAB
TAFVLD
TAF AMD
KVLD 310944Z 3110/0106 00000KT 3SM BR BKN002
     FM311400 03003KT P6SM SCT030=



000
FTUS42 KTAE 310942 AAB
TAFTLH
TAF AMD
KTLH 310942Z 3110/0106 00000KT 1SM BR OVC002
     FM311400 08007KT P6SM SCT030=



000
FTUS42 KTAE 310856 AAA
TAFTLH
TAF AMD
KTLH 310856Z 3109/0106 00000KT P6SM BKN005
     FM311300 35005KT P6SM SCT030=



000
FTUS42 KTAE 310856 AAA
TAFTLH
TAF AMD
KTLH 310856Z 3109/0106 00000KT P6SM BKN005
     FM311300 35005KT P6SM SCT030=



000
FTUS42 KTAE 310708 AAA
TAFABY
TAF AMD
KABY 310708Z 3107/0106 06003KT 3SM BR BKN002
     FM311400 34005KT P6SM SCT030=



000
FTUS42 KTAE 310601 AAA
TAFVLD
TAF AMD
KVLD 310601Z 3106/0106 00000KT 6SM BR BKN002
     FM311400 03003KT P6SM SCT030=



000
FTUS42 KTAE 310601 AAA
TAFVLD
TAF AMD
KVLD 310601Z 3106/0106 00000KT 6SM BR BKN002
     FM311400 03003KT P6SM SCT030=



000
FTUS42 KTAE 310535
TAFTLH
TAF
KTLH 310535Z 3106/0106 00000KT P6SM SKC
     FM311000 00000KT 4SM BR SCT005
     FM311300 35005KT P6SM SCT030=



000
FTUS42 KTAE 310535
TAFABY
TAF
KABY 310535Z 3106/0106 03003KT P6SM SKC
     FM310900 00000KT 5SM BR BKN009
     FM311400 34005KT P6SM SCT030=



000
FTUS42 KTAE 310535
TAFVLD
TAF
KVLD 310535Z 3106/0106 00000KT P6SM FEW004
     FM310700 00000KT 3SM BR BKN003
     FM311400 03003KT P6SM SCT030=



000
FTUS42 KTAE 310535
TAFDHN
TAF
KDHN 310535Z 3106/0106 33003KT P6SM SKC
     FM310900 04003KT 5SM BR SCT015
     FM311300 35005KT P6SM SCT030=



000
FTUS42 KTAE 310535
TAFTLH
TAF
KTLH 310535Z 3106/0106 00000KT P6SM SKC
     FM311000 00000KT 4SM BR SCT005
     FM311300 35005KT P6SM SCT030=



000
FTUS42 KTAE 310535
TAFVLD
TAF
KVLD 310535Z 3106/0106 00000KT P6SM FEW004
     FM310700 00000KT 3SM BR BKN003
     FM311400 03003KT P6SM SCT030=



000
FTUS42 KTAE 310535
TAFDHN
TAF
KDHN 310535Z 3106/0106 33003KT P6SM SKC
     FM310900 04003KT 5SM BR SCT015
     FM311300 35005KT P6SM SCT030=



000
FTUS42 KTAE 310535
TAFABY
TAF
KABY 310535Z 3106/0106 03003KT P6SM SKC
     FM310900 00000KT 5SM BR BKN009
     FM311400 34005KT P6SM SCT030=



000
FTUS42 KTAE 302324
TAFVLD
TAF
KVLD 302324Z 3100/3124 VRB04KT P6SM SCT030
     FM310900 00000KT 3SM BR BKN003
     FM311400 03003KT P6SM SCT030=



000
FTUS42 KTAE 302324
TAFTLH
TAF
KTLH 302324Z 3100/3124 35004KT P6SM SCT250
     FM311000 00000KT 4SM BR SCT005
     FM311300 35005KT P6SM SCT030=



000
FTUS42 KTAE 302324
TAFDHN
TAF
KDHN 302324Z 3100/3124 36003KT P6SM SKC
     FM310900 04003KT 5SM BR SCT015
     FM311300 35005KT P6SM SCT030=



000
FTUS42 KTAE 302324
TAFABY
TAF
KABY 302324Z 3100/3124 34005KT P6SM FEW050
     FM310900 00000KT 5SM BR BKN009
     FM311400 34005KT P6SM SCT030=



000
FTUS42 KTAE 302324
TAFVLD
TAF
KVLD 302324Z 3100/3124 VRB04KT P6SM SCT030
     FM310900 00000KT 3SM BR BKN003
     FM311400 03003KT P6SM SCT030=



000
FTUS42 KTAE 302013 AAA
TAFABY
TAF AMD
KABY 302013Z 3020/3118 VRB04KT P6SM SCT040
     FM310900 00000KT 5SM BR BKN009
     FM311400 34005KT P6SM SCT030=



000
FTUS42 KTAE 301722
TAFVLD
TAF
KVLD 301722Z 3018/3118 04007KT P6SM SCT030
     FM302100 04004KT P6SM VCTS BKN030CB
     FM310300 10004KT P6SM SCT030
     FM310900 00000KT 3SM BR BKN003
     FM311400 03003KT P6SM SCT030=



000
FTUS42 KTAE 301722
TAFDHN
TAF
KDHN 301722Z 3018/3118 13005KT P6SM FEW040
     FM310900 04003KT 5SM BR BKN012
     FM311300 35005KT P6SM SCT030=



000
FTUS42 KTAE 301722
TAFABY
TAF
KABY 301722Z 3018/3118 16005KT P6SM VCTS BKN022 BKN030CB
     FM310000 12006KT P6SM SCT040
     FM310900 00000KT 5SM BR BKN009
     FM311400 34005KT P6SM SCT030=



000
FTUS42 KTAE 301722
TAFTLH
TAF
KTLH 301722Z 3018/3118 12005KT P6SM SCT030 SCT250
     FM311000 00000KT P6SM BKN005
     FM311400 35005KT P6SM SCT030=



000
FTUS42 KTAE 301314 AAB
TAFTLH
TAF AMD
KTLH 301314Z 3013/3112 00000KT 3SM BR BKN003
     FM301400 12005KT P6SM BKN030=



000
FTUS42 KTAE 301312 AAB
TAFDHN
TAF AMD
KDHN 301312Z 3013/3112 10003KT P6SM SCT001
     FM301400 09004KT P6SM FEW030
     FM301800 13005KT P6SM FEW040=



000
FTUS42 KTAE 301312 AAB
TAFDHN
TAF AMD
KDHN 301312Z 3013/3112 10003KT P6SM SCT001
     FM301400 09004KT P6SM FEW030
     FM301800 13005KT P6SM FEW040=



000
FTUS42 KTAE 301255 AAA
TAFVLD
TAF AMD
KVLD 301255Z 3013/3112 00000KT P6SM SCT003 SCT015
     FM301400 14007KT P6SM SCT010 SCT030
     FM301800 15007KT P6SM VCTS BKN040CB
      TEMPO 3019/3023 VRB10G20KT 3SM TSRA
     FM310300 10004KT P6SM SCT030=



000
FTUS42 KTAE 301255 AAA
TAFVLD
TAF AMD
KVLD 301255Z 3013/3112 00000KT P6SM SCT003 SCT015
     FM301400 14007KT P6SM SCT010 SCT030
     FM301800 15007KT P6SM VCTS BKN040CB
      TEMPO 3019/3023 VRB10G20KT 3SM TSRA
     FM310300 10004KT P6SM SCT030=



000
FTUS42 KTAE 301202 AAA
TAFTLH
TAF AMD
KTLH 301202Z 3012/3112 00000KT P6SM BKN015
      TEMPO 3012/3014 1/2SM FG BKN001
     FM301400 12005KT P6SM BKN040=



000
FTUS42 KTAE 301202 AAA
TAFTLH
TAF AMD
KTLH 301202Z 3012/3112 00000KT P6SM BKN015
      TEMPO 3012/3014 1/2SM FG BKN001
     FM301400 12005KT P6SM BKN040=



000
FTUS42 KTAE 301201 AAA
TAFDHN
TAF AMD
KDHN 301201Z 3012/3112 07003KT 1SM BR BKN002
      TEMPO 3012/3014 1/4SM FG BKN001
     FM301400 09004KT P6SM FEW030
     FM301800 13005KT P6SM FEW040=



000
FTUS42 KTAE 301201 AAA
TAFDHN
TAF AMD
KDHN 301201Z 3012/3112 07003KT 1SM BR BKN002
      TEMPO 3012/3014 1/4SM FG BKN001
     FM301400 09004KT P6SM FEW030
     FM301800 13005KT P6SM FEW040=



000
FTUS42 KTAE 301120
TAFDHN
TAF
KDHN 301120Z 3012/3112 07003KT 1SM BR BKN002
     FM301400 09004KT P6SM FEW030
     FM301800 13005KT P6SM FEW040=



000
FTUS42 KTAE 301120
TAFTLH
TAF
KTLH 301120Z 3012/3112 00000KT P6SM BKN015
     FM301300 12005KT P6SM BKN040=



000
FTUS42 KTAE 301120
TAFABY
TAF
KABY 301120Z 3012/3112 VRB04KT P6SM VCSH OVC006
     FM301400 15004KT P6SM BKN025
     FM301700 16005KT P6SM VCTS BKN040CB
     FM310000 12006KT P6SM BKN040=



000
FTUS42 KTAE 301120
TAFTLH
TAF
KTLH 301120Z 3012/3112 00000KT P6SM BKN015
     FM301300 12005KT P6SM BKN040=



000
FTUS42 KTAE 301120
TAFDHN
TAF
KDHN 301120Z 3012/3112 07003KT 1SM BR BKN002
     FM301400 09004KT P6SM FEW030
     FM301800 13005KT P6SM FEW040=



000
FTUS42 KTAE 301120
TAFABY
TAF
KABY 301120Z 3012/3112 VRB04KT P6SM VCSH OVC006
     FM301400 15004KT P6SM BKN025
     FM301700 16005KT P6SM VCTS BKN040CB
     FM310000 12006KT P6SM BKN040=



000
FTUS42 KTAE 301120
TAFVLD
TAF
KVLD 301120Z 3012/3112 00000KT 5SM BR BKN003
     FM301400 14007KT P6SM SCT010 SCT030
     FM301800 15007KT P6SM VCTS BKN040CB
      TEMPO 3019/3023 VRB10G20KT 3SM TSRA
     FM310300 10004KT P6SM SCT030=



000
FTUS42 KTAE 301120
TAFVLD
TAF
KVLD 301120Z 3012/3112 00000KT 5SM BR BKN003
     FM301400 14007KT P6SM SCT010 SCT030
     FM301800 15007KT P6SM VCTS BKN040CB
      TEMPO 3019/3023 VRB10G20KT 3SM TSRA
     FM310300 10004KT P6SM SCT030=



000
FTUS42 KTAE 300937 AAC
TAFVLD
TAF AMD
KVLD 300937Z 3010/3106 00000KT 5SM BR BKN003
     FM301400 14007KT P6SM SCT010 BKN040
     FM301800 15007KT P6SM VCTS SCT040CB
      TEMPO 3019/3023 VRB10G20KT 3SM TSRA
     FM310300 10004KT P6SM SCT030=



000
FTUS42 KTAE 300904 AAB
TAFVLD
TAF AMD
KVLD 300904Z 3009/3106 10003KT P6SM SCT120 OVC250
     FM301000 00000KT 2SM BR BKN020
     FM301400 14007KT P6SM SCT010 BKN040
     FM301800 15007KT P6SM VCTS SCT040CB
      TEMPO 3019/3023 VRB10G20KT 3SM TSRA
     FM310300 10004KT P6SM SCT030=



000
FTUS42 KTAE 300855 AAB
TAFDHN
TAF AMD
KDHN 300855Z 3009/3106 07003KT 1/2SM FG BKN001
     FM301400 09004KT P6SM FEW030
     FM301800 13005KT P6SM FEW040=



000
FTUS42 KTAE 300855 AAB
TAFDHN
TAF AMD
KDHN 300855Z 3009/3106 07003KT 1/2SM FG BKN001
     FM301400 09004KT P6SM FEW030
     FM301800 13005KT P6SM FEW040=



000
FTUS42 KTAE 300802 AAA
TAFVLD
TAF AMD
KVLD 300802Z 3008/3106 10003KT P6SM SCT120 OVC250
     FM300900 00000KT 2SM BR BKN020
     FM301400 14007KT P6SM SCT010 BKN040
     FM301800 15007KT P6SM VCTS SCT040CB
      TEMPO 3019/3023 VRB10G20KT 3SM TSRA
     FM310300 10004KT P6SM SCT030=



000
FTUS42 KTAE 300801 AAA
TAFTLH
TAF AMD
KTLH 300801Z 3008/3106 07004KT P6SM SCT020
     FM301000 00000KT 5SM BR BKN012
     FM301400 12005KT P6SM BKN040=



000
FTUS42 KTAE 300801 AAA
TAFTLH
TAF AMD
KTLH 300801Z 3008/3106 07004KT P6SM SCT020
     FM301000 00000KT 5SM BR BKN012
     FM301400 12005KT P6SM BKN040=



000
FTUS42 KTAE 300701 AAB
TAFABY
TAF AMD
KABY 300701Z 3007/3106 16004KT 2SM RA BKN030
     FM301000 10003KT 5SM BR BKN012
     FM301400 15004KT P6SM BKN025
     FM301700 16005KT P6SM VCTS BKN040CB
     FM310000 12006KT P6SM BKN040=



000
FTUS42 KTAE 300557 AAA
TAFDHN
TAF AMD
KDHN 300557Z 3006/3106 07003KT P6SM BKN025
     FM300800 07003KT 1SM BR BKN007
     FM301400 09004KT P6SM FEW030
     FM301800 13005KT P6SM FEW040=



000
FTUS42 KTAE 300556 AAA
TAFABY
TAF AMD
KABY 300556Z 3006/3106 10003KT 5SM BR BKN012
     FM301400 15004KT P6SM BKN025
     FM301700 16005KT P6SM VCTS BKN040CB
     FM310000 12006KT P6SM BKN040=



000
FTUS42 KTAE 300526
TAFVLD
TAF
KVLD 300526Z 3006/3106 10003KT P6SM SCT120 OVC250
     FM300800 00000KT 2SM BR BKN020
     FM301400 14007KT P6SM SCT010 BKN040
     FM301800 15007KT P6SM VCTS SCT040CB
      TEMPO 3019/3023 VRB10G20KT 3SM TSRA
     FM310300 10004KT P6SM SCT030=



000
FTUS42 KTAE 300526
TAFTLH
TAF
KTLH 300526Z 3006/3106 07004KT P6SM SCT035
     FM300800 00000KT 5SM BR BKN012
     FM301400 12005KT P6SM BKN040=



000
FTUS42 KTAE 300526
TAFDHN
TAF
KDHN 300526Z 3006/3106 07003KT P6SM SCT010 SCT090
     FM300800 07003KT 1SM BR BKN007
     FM301400 09004KT P6SM FEW030
     FM301800 13005KT P6SM FEW040=



000
FTUS42 KTAE 300526
TAFTLH
TAF
KTLH 300526Z 3006/3106 07004KT P6SM SCT035
     FM300800 00000KT 5SM BR BKN012
     FM301400 12005KT P6SM BKN040=



000
FTUS42 KTAE 300526
TAFVLD
TAF
KVLD 300526Z 3006/3106 10003KT P6SM SCT120 OVC250
     FM300800 00000KT 2SM BR BKN020
     FM301400 14007KT P6SM SCT010 BKN040
     FM301800 15007KT P6SM VCTS SCT040CB
      TEMPO 3019/3023 VRB10G20KT 3SM TSRA
     FM310300 10004KT P6SM SCT030=



000
FTUS42 KTAE 300526
TAFDHN
TAF
KDHN 300526Z 3006/3106 07003KT P6SM SCT010 SCT090
     FM300800 07003KT 1SM BR BKN007
     FM301400 09004KT P6SM FEW030
     FM301800 13005KT P6SM FEW040=



000
FTUS42 KTAE 300526
TAFABY
TAF
KABY 300526Z 3006/3106 10004KT P6SM SCT012 OVC090
     FM300800 08003KT 5SM BR BKN012
     FM301400 15004KT P6SM BKN025
     FM301700 16005KT P6SM VCTS BKN040CB
     FM310000 12006KT P6SM BKN040=



000
FTUS42 KTAE 300526
TAFABY
TAF
KABY 300526Z 3006/3106 10004KT P6SM SCT012 OVC090
     FM300800 08003KT 5SM BR BKN012
     FM301400 15004KT P6SM BKN025
     FM301700 16005KT P6SM VCTS BKN040CB
     FM310000 12006KT P6SM BKN040=



000
FTUS42 KTAE 300109 AAA
TAFDHN
TAF AMD
KDHN 300109Z 3001/3024 32007KT P6SM VCSH OVC026
      TEMPO 3001/3004 2SM +RA
     FM300800 VRB03KT 5SM BR BKN007
     FM301400 05004KT P6SM SCT010 SCT040
     FM301800 05005KT P6SM SCT040=



000
FTUS42 KTAE 300109 AAA
TAFDHN
TAF AMD
KDHN 300109Z 3001/3024 32007KT P6SM VCSH OVC026
      TEMPO 3001/3004 2SM +RA
     FM300800 VRB03KT 5SM BR BKN007
     FM301400 05004KT P6SM SCT010 SCT040
     FM301800 05005KT P6SM SCT040=



000
FTUS42 KTAE 292321
TAFTLH
TAF
KTLH 292321Z 3000/3024 13004KT P6SM FEW025 BKN150 OVC250
     FM300800 00000KT 5SM BR BKN015
     FM301400 04004KT P6SM SCT040
     FM301800 07005KT P6SM VCTS SCT040CB=



000
FTUS42 KTAE 292321
TAFTLH
TAF
KTLH 292321Z 3000/3024 13004KT P6SM FEW025 BKN150 OVC250
     FM300800 00000KT 5SM BR BKN015
     FM301400 04004KT P6SM SCT040
     FM301800 07005KT P6SM VCTS SCT040CB=



000
FTUS42 KTAE 292321
TAFABY
TAF
KABY 292321Z 3000/3024 10006KT P6SM SCT030 BKN050
     FM300800 00000KT 5SM BR BKN007
     FM301400 08004KT P6SM SCT010 BKN100
     FM301800 09005KT P6SM VCTS SCT040CB=



000
FTUS42 KTAE 292321
TAFVLD
TAF
KVLD 292321Z 3000/3024 VRB03KT P6SM OVC100
     FM300800 00000KT 3SM BR BKN003
     FM301400 08004KT P6SM SCT010 BKN040
     FM301800 09007KT P6SM VCTS SCT040CB
      TEMPO 3019/3023 VRB10G20KT 3SM TSRA=



000
FTUS42 KTAE 292321
TAFDHN
TAF
KDHN 292321Z 3000/3024 10004KT P6SM OVC100
     FM300800 VRB03KT 5SM BR BKN007
     FM301400 05004KT P6SM SCT010 SCT040
     FM301800 05005KT P6SM SCT040=



000
FTUS42 KTAE 292321
TAFVLD
TAF
KVLD 292321Z 3000/3024 VRB03KT P6SM OVC100
     FM300800 00000KT 3SM BR BKN003
     FM301400 08004KT P6SM SCT010 BKN040
     FM301800 09007KT P6SM VCTS SCT040CB
      TEMPO 3019/3023 VRB10G20KT 3SM TSRA=



000
FTUS42 KTAE 292321
TAFDHN
TAF
KDHN 292321Z 3000/3024 10004KT P6SM OVC100
     FM300800 VRB03KT 5SM BR BKN007
     FM301400 05004KT P6SM SCT010 SCT040
     FM301800 05005KT P6SM SCT040=



000
FTUS42 KTAE 292321
TAFABY
TAF
KABY 292321Z 3000/3024 10006KT P6SM SCT030 BKN050
     FM300800 00000KT 5SM BR BKN007
     FM301400 08004KT P6SM SCT010 BKN100
     FM301800 09005KT P6SM VCTS SCT040CB=



    US Dept of Commerce
    National Oceanic and Atmospheric Administration
    National Weather Service
    1325 East West Highway
    Silver Spring, MD 20910
    Page Author: NWS Internet Services Team
Disclaimer
Information Quality
Credits
Glossary
Privacy Policy
Freedom of Information Act (FOIA)
About Us
Career Opportunities